Time;durP1;ratioP1;P1;durP2;ratioP2;P2;SDS_P1;SDS_P2;PMS_P1;PMS_P2;Temp;Humidity;BMP_temperature;BMP_pressure;BME280_temperature;BME280_humidity;BME280_pressure;Samples;Min_cycle;Max_cycle;Signal;HPM_P1;HPM_P2
2023/08/29 00:00:00;;;;;;;2.22;1.25;;;19.20;99.90;;;;;;5017078;28;20033;-81
2023/08/29 00:02:31;;;;;;;4.18;0.98;;;19.20;99.90;;;;;;5018860;28;20021;-82
2023/08/29 00:04:57;;;;;;;1.80;1.70;;;19.10;99.90;;;;;;5017744;28;20026;-81
2023/08/29 00:07:22;;;;;;;2.85;1.73;;;19.10;99.90;;;;;;5017764;28;20033;-80
2023/08/29 00:09:48;;;;;;;3.83;2.22;;;19.10;99.90;;;;;;5016370;28;20022;-81
2023/08/29 00:12:14;;;;;;;6.32;2.60;;;19.10;99.90;;;;;;5016568;28;20052;-81
2023/08/29 00:14:40;;;;;;;2.88;2.10;;;19.10;99.90;;;;;;5018066;28;20030;-81
2023/08/29 00:17:07;;;;;;;5.22;3.00;;;19.00;99.90;;;;;;5016293;28;20033;-81
2023/08/29 00:19:33;;;;;;;2.92;2.55;;;18.90;99.90;;;;;;5016625;28;20029;-79
2023/08/29 00:22:01;;;;;;;3.58;2.78;;;18.90;99.90;;;;;;5017045;28;20022;-80
2023/08/29 00:24:28;;;;;;;3.05;2.60;;;18.90;99.90;;;;;;5017420;28;20447;-80
2023/08/29 00:26:53;;;;;;;3.05;2.13;;;18.90;99.90;;;;;;5018112;28;20087;-82
2023/08/29 00:29:19;;;;;;;2.83;2.20;;;18.90;99.90;;;;;;5018478;28;20125;-82
2023/08/29 00:31:45;;;;;;;3.08;2.25;;;18.80;99.90;;;;;;5018961;28;20018;-80
2023/08/29 00:34:10;;;;;;;5.38;2.13;;;18.80;99.90;;;;;;5016938;28;20607;-81
2023/08/29 00:36:36;;;;;;;5.45;2.47;;;18.70;99.90;;;;;;5016680;28;20117;-82
2023/08/29 00:39:03;;;;;;;2.17;1.98;;;18.70;99.90;;;;;;5018143;28;20022;-81
2023/08/29 00:41:29;;;;;;;3.58;2.20;;;18.60;99.90;;;;;;5032466;28;20022;-78
2023/08/29 00:43:54;;;;;;;3.08;1.92;;;18.60;99.90;;;;;;5021231;28;20075;-78
2023/08/29 00:46:20;;;;;;;2.92;2.03;;;18.60;99.90;;;;;;5016749;28;20100;-81
2023/08/29 00:48:46;;;;;;;4.38;1.90;;;18.60;99.90;;;;;;5017186;28;20033;-81
2023/08/29 00:51:12;;;;;;;1.98;1.38;;;18.60;99.90;;;;;;5016087;28;20030;-81
2023/08/29 00:53:38;;;;;;;1.00;1.00;;;18.50;99.90;;;;;;5016570;28;20032;-80
2023/08/29 00:56:04;;;;;;;1.33;1.17;;;18.60;99.90;;;;;;5017108;28;20527;-81
2023/08/29 00:58:31;;;;;;;2.05;1.45;;;18.60;99.90;;;;;;5016489;28;20060;-82
2023/08/29 01:00:57;;;;;;;1.33;1.20;;;18.50;99.90;;;;;;5017063;28;20455;-82
2023/08/29 01:03:23;;;;;;;1.40;1.30;;;18.40;99.90;;;;;;5020545;28;20093;-82
2023/08/29 01:05:48;;;;;;;1.25;1.15;;;18.30;99.90;;;;;;5020513;28;20048;-81
2023/08/29 01:08:14;;;;;;;1.30;1.20;;;18.30;99.90;;;;;;5021715;28;20025;-81
2023/08/29 01:11:04;;;;;;;2.60;0.85;;;18.20;99.90;;;;;;5021307;28;20045;-82
2023/08/29 01:13:38;;;;;;;1.33;1.08;;;18.20;99.90;;;;;;5022680;28;20480;-80
2023/08/29 01:16:08;;;;;;;2.42;0.85;;;18.20;99.90;;;;;;5021498;28;20033;-82
2023/08/29 01:18:37;;;;;;;2.25;1.15;;;18.20;99.90;;;;;;5021025;28;20081;-81
2023/08/29 01:21:18;;;;;;;1.48;1.10;;;18.20;99.90;;;;;;5022696;28;20069;-82
2023/08/29 01:23:54;;;;;;;1.80;1.40;;;18.20;99.90;;;;;;5029782;28;20018;-78
2023/08/29 01:26:22;;;;;;;2.83;0.93;;;18.20;99.90;;;;;;5034353;28;20048;-80
2023/08/29 01:28:48;;;;;;;1.67;0.70;;;18.20;99.90;;;;;;5035592;28;20037;-78
2023/08/29 01:31:15;;;;;;;0.80;0.80;;;18.20;99.90;;;;;;5035681;28;20097;-80
2023/08/29 01:33:41;;;;;;;0.70;0.70;;;18.20;99.90;;;;;;5035570;28;20025;-80
2023/08/29 01:36:07;;;;;;;2.90;0.95;;;18.20;99.90;;;;;;5035099;28;20041;-79
2023/08/29 01:38:33;;;;;;;1.52;0.88;;;18.10;99.90;;;;;;5032729;28;20053;-79
2023/08/29 01:40:58;;;;;;;2.90;0.90;;;18.10;99.90;;;;;;5022173;28;20133;-78
2023/08/29 01:43:24;;;;;;;0.75;0.75;;;18.10;99.90;;;;;;5016348;28;20053;-80
2023/08/29 01:45:50;;;;;;;0.88;0.88;;;18.00;99.90;;;;;;5014328;28;20030;-80
2023/08/29 01:48:16;;;;;;;0.88;0.82;;;18.00;99.90;;;;;;5013894;28;20022;-80
2023/08/29 01:50:42;;;;;;;2.00;1.00;;;18.00;99.90;;;;;;5014079;28;20109;-81
2023/08/29 01:53:09;;;;;;;1.02;0.80;;;18.10;99.90;;;;;;5014135;28;20029;-79
2023/08/29 01:55:37;;;;;;;1.48;0.60;;;18.10;99.90;;;;;;5013653;28;20034;-81
2023/08/29 01:58:04;;;;;;;0.50;0.45;;;18.10;99.90;;;;;;5015164;28;20503;-81
2023/08/29 02:00:31;;;;;;;3.70;0.90;;;18.10;99.90;;;;;;5030590;28;20026;-81
2023/08/29 02:02:57;;;;;;;0.50;0.50;;;18.10;99.90;;;;;;5015217;28;20029;-81
2023/08/29 02:05:23;;;;;;;1.27;0.40;;;18.10;99.90;;;;;;5013176;28;20032;-81
2023/08/29 02:07:50;;;;;;;0.88;0.50;;;18.10;99.90;;;;;;5013797;28;20097;-81
2023/08/29 02:10:16;;;;;;;0.90;0.90;;;18.10;99.90;;;;;;5015084;28;20014;-81
2023/08/29 02:12:41;;;;;;;1.05;0.70;;;18.10;99.90;;;;;;5014884;28;20120;-82
2023/08/29 02:15:08;;;;;;;1.10;0.75;;;18.00;99.90;;;;;;5020571;28;20053;-82
2023/08/29 02:17:34;;;;;;;2.35;0.60;;;18.00;99.90;;;;;;5017143;28;20030;-81
2023/08/29 02:20:00;;;;;;;2.25;0.57;;;18.00;99.90;;;;;;5015713;28;20507;-81
2023/08/29 02:22:25;;;;;;;2.47;0.57;;;18.10;99.90;;;;;;5017224;28;20037;-80
2023/08/29 02:24:51;;;;;;;3.60;1.45;;;18.20;99.90;;;;;;5017531;28;20038;-81
2023/08/29 02:27:16;;;;;;;1.95;0.68;;;18.20;99.90;;;;;;5015069;28;20495;-81
2023/08/29 02:29:42;;;;;;;1.98;1.55;;;18.20;99.90;;;;;;5019141;28;20034;-82
2023/08/29 02:32:08;;;;;;;0.52;0.50;;;18.10;99.90;;;;;;5015436;28;20056;-81
2023/08/29 02:34:33;;;;;;;1.67;0.50;;;18.10;99.90;;;;;;5015271;28;20076;-81
2023/08/29 02:36:59;;;;;;;0.38;0.38;;;18.00;99.90;;;;;;5013532;28;20572;-81
2023/08/29 02:39:24;;;;;;;1.25;0.52;;;18.00;99.90;;;;;;5014883;28;20022;-81
2023/08/29 02:41:50;;;;;;;0.65;0.63;;;17.90;99.90;;;;;;5014276;28;20065;-81
2023/08/29 02:44:16;;;;;;;1.70;0.70;;;17.90;99.90;;;;;;5015075;28;20029;-81
2023/08/29 02:46:41;;;;;;;1.10;1.00;;;17.90;99.90;;;;;;5014757;28;20500;-81
2023/08/29 02:49:07;;;;;;;1.48;0.52;;;17.80;99.90;;;;;;5013316;28;20033;-81
2023/08/29 02:51:33;;;;;;;0.90;0.47;;;17.80;99.90;;;;;;5013149;28;20057;-81
2023/08/29 02:53:58;;;;;;;0.30;0.30;;;17.70;99.90;;;;;;5015166;28;20030;-81
2023/08/29 02:56:24;;;;;;;2.40;0.68;;;17.70;99.90;;;;;;5015013;28;20080;-81
2023/08/29 02:58:50;;;;;;;2.88;0.70;;;17.70;99.90;;;;;;5013040;28;20507;-80
2023/08/29 03:01:16;;;;;;;0.63;0.63;;;17.70;99.90;;;;;;5015156;28;20531;-81
2023/08/29 03:03:41;;;;;;;0.65;0.57;;;17.60;99.90;;;;;;5013869;28;20034;-80
2023/08/29 03:06:07;;;;;;;0.70;0.65;;;17.60;99.90;;;;;;5015335;28;20026;-80
2023/08/29 03:08:33;;;;;;;2.25;0.80;;;17.50;99.90;;;;;;5013806;28;20022;-81
2023/08/29 03:11:03;;;;;;;0.98;0.47;;;17.50;99.90;;;;;;5030323;28;20036;-80
2023/08/29 03:13:29;;;;;;;3.08;0.88;;;17.50;99.90;;;;;;5014121;28;20495;-79
2023/08/29 03:15:55;;;;;;;0.73;0.73;;;17.50;99.90;;;;;;5013784;28;20026;-81
2023/08/29 03:18:20;;;;;;;1.00;0.90;;;17.50;99.90;;;;;;5018588;28;20105;-80
2023/08/29 03:20:46;;;;;;;1.85;1.40;;;17.50;99.90;;;;;;5019007;28;20060;-80
2023/08/29 03:23:12;;;;;;;1.52;1.40;;;17.60;99.90;;;;;;5020034;28;20092;-80
2023/08/29 03:25:38;;;;;;;2.03;1.60;;;17.60;99.90;;;;;;5019747;28;20077;-81
2023/08/29 03:28:04;;;;;;;2.45;2.10;;;17.60;99.90;;;;;;5021133;28;20034;-79
2023/08/29 03:30:30;;;;;;;3.35;1.92;;;17.60;99.90;;;;;;5022071;28;20022;-79
2023/08/29 03:32:56;;;;;;;3.33;1.75;;;17.60;99.90;;;;;;5034350;28;20073;-78
2023/08/29 03:35:23;;;;;;;4.72;2.15;;;17.70;99.90;;;;;;5038342;28;20038;-80
2023/08/29 03:37:48;;;;;;;7.38;2.20;;;17.70;99.90;;;;;;5036107;28;20036;-77
2023/08/29 03:40:14;;;;;;;5.57;1.77;;;17.70;99.90;;;;;;5036877;28;20022;-78
2023/08/29 03:42:40;;;;;;;2.30;1.67;;;17.90;99.90;;;;;;5037456;28;20489;-79
2023/08/29 03:45:06;;;;;;;2.55;2.28;;;19.30;99.90;;;;;;5038484;28;20036;-78
2023/08/29 03:47:33;;;;;;;3.47;1.95;;;20.10;99.90;;;;;;5037052;28;20026;-79
2023/08/29 03:49:59;;;;;;;1.60;1.50;;;20.70;99.90;;;;;;5036339;28;20029;-78
2023/08/29 03:52:29;;;;;;;2.58;1.73;;;20.70;99.90;;;;;;5032284;28;20014;-77
2023/08/29 03:54:55;;;;;;;1.38;1.25;;;20.70;99.90;;;;;;5025349;28;20039;-79
2023/08/29 03:57:24;;;;;;;1.50;1.40;;;20.70;99.90;;;;;;5017364;28;20030;-78
2023/08/29 03:59:50;;;;;;;1.25;1.15;;;21.00;99.90;;;;;;5019330;28;20022;-78
2023/08/29 04:02:16;;;;;;;1.77;1.10;;;20.90;99.90;;;;;;5019597;28;20038;-78
2023/08/29 04:04:44;;;;;;;1.40;1.25;;;20.80;99.90;;;;;;5019542;28;20027;-77
2023/08/29 04:07:12;;;;;;;1.20;1.10;;;20.80;99.90;;;;;;5011985;28;20105;-78
2023/08/29 04:09:39;;;;;;;1.40;1.30;;;21.00;99.90;;;;;;4997227;28;20488;-78
2023/08/29 04:12:07;;;;;;;1.33;0.90;;;21.00;99.90;;;;;;5001451;28;20034;-76
2023/08/29 04:14:33;;;;;;;2.20;1.40;;;21.20;99.90;;;;;;5033909;28;20034;-78
2023/08/29 04:16:59;;;;;;;0.88;0.85;;;20.50;99.90;;;;;;5019093;28;20030;-78
2023/08/29 04:19:25;;;;;;;2.00;1.80;;;19.90;99.90;;;;;;5018051;28;20109;-78
2023/08/29 04:21:50;;;;;;;1.10;1.10;;;20.60;99.90;;;;;;5016839;28;20137;-78
2023/08/29 04:24:16;;;;;;;1.60;0.98;;;20.50;99.90;;;;;;5016374;28;20484;-78
2023/08/29 04:26:41;;;;;;;3.38;1.08;;;20.50;99.90;;;;;;5018395;28;20026;-78
2023/08/29 04:29:07;;;;;;;2.05;0.98;;;20.80;99.90;;;;;;5016575;28;20124;-78
2023/08/29 04:31:32;;;;;;;0.80;0.70;;;20.50;99.90;;;;;;5019514;28;20053;-78
2023/08/29 04:33:59;;;;;;;2.17;1.17;;;20.10;99.90;;;;;;5017576;28;20440;-78
2023/08/29 04:36:25;;;;;;;1.33;1.23;;;20.40;99.90;;;;;;5025949;28;20026;-77
2023/08/29 04:38:51;;;;;;;3.83;0.80;;;20.80;99.90;;;;;;5037812;28;20030;-78
2023/08/29 04:41:16;;;;;;;1.10;1.05;;;20.90;99.90;;;;;;5037801;28;20046;-77
2023/08/29 04:43:42;;;;;;;0.80;0.77;;;20.90;99.90;;;;;;5036908;28;20077;-77
2023/08/29 04:46:08;;;;;;;1.00;1.00;;;21.00;99.90;;;;;;5036620;28;20033;-77
2023/08/29 04:48:34;;;;;;;2.70;1.52;;;20.70;99.90;;;;;;5037738;28;20056;-77
2023/08/29 04:51:00;;;;;;;1.30;1.10;;;20.40;99.90;;;;;;5035188;28;20041;-76
2023/08/29 04:53:26;;;;;;;1.60;1.48;;;20.30;99.90;;;;;;5036259;28;20037;-77
2023/08/29 04:56:03;;;;;;;1.95;1.00;;;20.30;99.90;;;;;;5035119;28;20037;-80
2023/08/29 04:58:29;;;;;;;2.42;1.00;;;20.40;99.90;;;;;;5026516;28;20094;-80
2023/08/29 05:00:56;;;;;;;2.10;1.70;;;20.90;99.90;;;;;;5021180;28;20067;-79
2023/08/29 05:03:22;;;;;;;2.03;1.65;;;20.60;99.90;;;;;;5019680;28;20014;-80
2023/08/29 05:05:48;;;;;;;1.17;1.00;;;20.50;99.90;;;;;;5019897;28;20037;-81
2023/08/29 05:08:14;;;;;;;0.98;0.98;;;20.30;99.90;;;;;;5020562;28;20026;-81
2023/08/29 05:10:40;;;;;;;1.58;0.80;;;20.30;99.90;;;;;;5023721;28;20077;-81
2023/08/29 05:13:06;;;;;;;1.08;0.57;;;20.00;99.90;;;;;;5024258;28;20049;-82
2023/08/29 05:15:32;;;;;;;0.50;0.50;;;19.70;99.90;;;;;;5037669;28;20037;-80
2023/08/29 05:17:58;;;;;;;0.73;0.52;;;19.90;99.90;;;;;;5016445;28;20369;-80
2023/08/29 05:20:24;;;;;;;0.80;0.80;;;20.20;99.90;;;;;;5016391;28;20488;-81
2023/08/29 05:22:49;;;;;;;1.35;1.20;;;20.10;99.90;;;;;;5017715;28;20303;-80
2023/08/29 05:25:15;;;;;;;0.75;0.50;;;19.90;99.90;;;;;;5018600;28;20488;-81
2023/08/29 05:27:41;;;;;;;0.80;0.60;;;19.60;99.90;;;;;;5019173;28;20109;-81
2023/08/29 05:30:07;;;;;;;1.52;0.60;;;20.20;99.90;;;;;;5020295;28;20121;-81
2023/08/29 05:32:33;;;;;;;1.25;0.52;;;19.90;99.90;;;;;;5019272;28;20022;-82
2023/08/29 05:34:59;;;;;;;0.50;0.50;;;20.00;99.90;;;;;;5020545;28;20040;-82
2023/08/29 05:37:25;;;;;;;0.35;0.35;;;20.50;99.90;;;;;;5020627;28;20058;-80
2023/08/29 05:39:51;;;;;;;0.60;0.60;;;20.70;99.90;;;;;;5018434;28;20033;-81
2023/08/29 05:42:17;;;;;;;0.65;0.60;;;20.70;99.90;;;;;;5020714;28;20569;-81
2023/08/29 05:44:43;;;;;;;0.52;0.50;;;20.40;99.90;;;;;;5021370;28;20034;-81
2023/08/29 05:47:08;;;;;;;0.20;0.20;;;20.10;99.90;;;;;;5023466;28;20006;-81
2023/08/29 05:49:34;;;;;;;0.30;0.22;;;19.80;99.90;;;;;;5036304;28;20045;-79
2023/08/29 05:51:59;;;;;;;1.08;0.50;;;19.70;99.90;;;;;;5020944;28;20030;-79
2023/08/29 05:54:25;;;;;;;1.95;0.50;;;19.80;99.90;;;;;;5020820;28;20026;-80
2023/08/29 05:56:51;;;;;;;2.08;0.70;;;19.90;99.90;;;;;;5021928;28;20034;-80
2023/08/29 05:59:16;;;;;;;0.60;0.35;;;20.00;99.90;;;;;;5021024;28;20038;-80
2023/08/29 06:01:42;;;;;;;1.23;0.60;;;19.80;99.90;;;;;;5019312;28;20018;-80
2023/08/29 06:04:08;;;;;;;2.65;0.80;;;19.90;99.90;;;;;;5026304;28;20013;-78
2023/08/29 06:06:33;;;;;;;1.20;0.98;;;19.80;99.90;;;;;;5031695;28;20041;-78
2023/08/29 06:08:59;;;;;;;0.50;0.50;;;19.90;99.90;;;;;;5032538;28;20017;-77
2023/08/29 06:11:28;;;;;;;0.40;0.40;;;19.80;99.90;;;;;;5049485;28;20041;-77
2023/08/29 06:13:54;;;;;;;0.73;0.50;;;19.80;99.90;;;;;;5032882;28;20053;-79
2023/08/29 06:16:19;;;;;;;0.43;0.43;;;19.70;99.90;;;;;;5034067;28;20145;-77
2023/08/29 06:18:45;;;;;;;0.38;0.30;;;19.80;99.90;;;;;;5032832;28;20112;-78
2023/08/29 06:21:12;;;;;;;1.35;0.50;;;19.90;99.90;;;;;;5026524;28;20034;-79
2023/08/29 06:23:37;;;;;;;0.38;0.38;;;19.90;99.90;;;;;;5017672;28;20014;-79
2023/08/29 06:26:03;;;;;;;0.90;0.60;;;19.80;99.90;;;;;;5013003;28;20459;-79
2023/08/29 06:28:29;;;;;;;0.50;0.50;;;19.70;99.90;;;;;;5014115;28;20101;-81
2023/08/29 06:30:55;;;;;;;0.50;0.50;;;19.70;99.90;;;;;;5013746;28;20112;-80
2023/08/29 06:33:20;;;;;;;0.47;0.47;;;19.70;99.90;;;;;;5014004;28;20065;-80
2023/08/29 06:35:46;;;;;;;1.05;0.68;;;19.80;99.90;;;;;;5013419;28;20492;-80
2023/08/29 06:38:12;;;;;;;1.92;0.45;;;19.80;99.90;;;;;;5013608;28;20030;-81
2023/08/29 06:40:37;;;;;;;0.52;0.52;;;19.90;99.90;;;;;;5013747;28;20030;-81
2023/08/29 06:43:03;;;;;;;0.70;0.50;;;19.80;99.90;;;;;;5013365;28;20022;-79
2023/08/29 06:45:29;;;;;;;2.08;1.05;;;19.70;99.90;;;;;;5012791;28;20030;-80
2023/08/29 06:47:55;;;;;;;3.30;1.38;;;19.60;99.90;;;;;;5013699;28;20026;-78
2023/08/29 06:50:20;;;;;;;1.73;0.90;;;19.80;99.90;;;;;;5014539;28;20109;-80
2023/08/29 06:52:46;;;;;;;0.93;0.85;;;19.90;99.90;;;;;;5016159;28;20033;-79
2023/08/29 06:55:11;;;;;;;1.42;0.75;;;19.90;99.90;;;;;;5018021;28;20113;-79
2023/08/29 06:57:37;;;;;;;1.05;0.93;;;20.10;99.90;;;;;;5017487;28;20049;-79
2023/08/29 07:00:04;;;;;;;2.08;1.67;;;20.10;99.90;;;;;;5018514;28;20033;-79
2023/08/29 07:02:30;;;;;;;1.48;0.82;;;20.10;99.90;;;;;;5018379;28;20026;-80
2023/08/29 07:04:55;;;;;;;1.00;1.00;;;20.30;99.90;;;;;;5019661;28;20117;-80
2023/08/29 07:07:21;;;;;;;1.10;1.00;;;20.30;99.90;;;;;;5018676;28;20530;-80
2023/08/29 07:09:47;;;;;;;0.70;0.70;;;20.30;99.90;;;;;;5020565;28;20026;-80
2023/08/29 07:12:12;;;;;;;1.02;0.93;;;20.40;99.90;;;;;;5017964;28;20032;-80
2023/08/29 07:14:38;;;;;;;0.80;0.60;;;20.30;99.90;;;;;;5018438;28;20157;-79
2023/08/29 07:17:05;;;;;;;1.10;1.00;;;20.40;99.90;;;;;;5018052;28;20504;-78
2023/08/29 07:19:30;;;;;;;0.70;0.70;;;20.40;99.90;;;;;;5018521;28;20026;-81
2023/08/29 07:21:56;;;;;;;1.10;1.00;;;20.30;99.90;;;;;;5020116;28;20029;-80
2023/08/29 07:24:22;;;;;;;1.63;1.05;;;20.30;99.90;;;;;;5021467;28;20022;-78
2023/08/29 07:26:47;;;;;;;3.20;1.55;;;20.30;99.90;;;;;;5020425;28;20425;-80
2023/08/29 07:29:13;;;;;;;2.08;1.40;;;20.30;99.90;;;;;;5020041;28;20026;-76
2023/08/29 07:31:39;;;;;;;2.35;1.50;;;20.50;99.90;;;;;;5018411;28;20022;-80
2023/08/29 07:34:04;;;;;;;1.38;1.13;;;20.60;99.90;;;;;;5018279;28;20036;-78
2023/08/29 07:36:30;;;;;;;1.58;1.27;;;20.70;99.90;;;;;;5018502;28;20101;-78
2023/08/29 07:38:56;;;;;;;1.52;1.40;;;20.80;99.90;;;;;;5018694;28;20483;-77
2023/08/29 07:41:23;;;;;;;1.65;1.52;;;20.80;99.90;;;;;;5017173;28;20111;-80
2023/08/29 07:43:48;;;;;;;2.88;1.80;;;20.90;99.90;;;;;;5019209;28;20018;-79
2023/08/29 07:46:14;;;;;;;2.40;1.75;;;20.80;99.90;;;;;;5017365;28;20060;-79
2023/08/29 07:48:40;;;;;;;1.40;1.30;;;20.70;99.90;;;;;;5017589;28;20033;-78
2023/08/29 07:51:05;;;;;;;1.88;1.65;;;20.70;99.90;;;;;;5018542;28;20021;-79
2023/08/29 07:53:32;;;;;;;2.63;1.85;;;20.70;99.90;;;;;;5039882;28;20045;-81
2023/08/29 07:55:58;;;;;;;2.58;1.65;;;20.80;99.90;;;;;;5022170;28;20076;-80
2023/08/29 07:58:23;;;;;;;2.20;1.85;;;20.80;99.90;;;;;;5020353;28;20038;-81
2023/08/29 08:00:49;;;;;;;2.15;1.75;;;21.00;99.90;;;;;;5019946;28;20022;-81
2023/08/29 08:03:15;;;;;;;3.53;1.40;;;20.90;99.90;;;;;;5020433;28;20025;-82
2023/08/29 08:05:40;;;;;;;1.50;1.33;;;20.80;99.90;;;;;;5020103;28;20030;-81
2023/08/29 08:08:06;;;;;;;2.72;1.80;;;21.00;99.90;;;;;;5018870;28;20061;-81
2023/08/29 08:10:31;;;;;;;1.52;1.42;;;20.90;99.90;;;;;;5019313;28;20034;-79
2023/08/29 08:12:57;;;;;;;1.58;1.48;;;20.90;99.90;;;;;;5017078;28;20036;-81
2023/08/29 08:15:23;;;;;;;5.90;1.60;;;20.80;99.90;;;;;;5015032;28;20400;-80
2023/08/29 08:17:49;;;;;;;2.22;2.03;;;20.80;99.90;;;;;;5018315;28;20065;-82
2023/08/29 08:20:15;;;;;;;1.85;1.75;;;20.90;99.90;;;;;;5015257;28;20136;-80
2023/08/29 08:22:41;;;;;;;2.58;1.88;;;21.00;99.90;;;;;;5016564;28;20022;-80
2023/08/29 08:25:09;;;;;;;1.80;1.50;;;21.00;99.90;;;;;;5016712;28;20029;-80
2023/08/29 08:27:36;;;;;;;1.90;1.63;;;21.00;99.90;;;;;;5016881;28;20028;-82
2023/08/29 08:30:03;;;;;;;2.88;1.75;;;21.10;99.90;;;;;;5035544;28;20385;-81
2023/08/29 08:32:28;;;;;;;2.88;1.58;;;20.90;99.90;;;;;;5017814;28;20030;-81
2023/08/29 08:34:55;;;;;;;4.90;1.52;;;21.00;99.90;;;;;;5016859;28;20026;-83
2023/08/29 08:37:21;;;;;;;4.50;1.85;;;20.90;99.90;;;;;;5016869;28;20044;-79
2023/08/29 08:39:46;;;;;;;2.03;1.83;;;20.90;99.90;;;;;;5031516;28;20488;-81
2023/08/29 08:42:14;;;;;;;2.08;1.90;;;21.00;99.90;;;;;;5016688;28;20484;-83
2023/08/29 08:44:41;;;;;;;8.05;2.53;;;21.00;99.90;;;;;;5017068;28;20080;-84
2023/08/29 08:47:07;;;;;;;3.45;1.85;;;21.20;99.90;;;;;;5015618;28;20026;-82
2023/08/29 08:49:33;;;;;;;2.63;2.05;;;21.20;99.90;;;;;;5017261;28;20152;-88
2023/08/29 08:52:00;;;;;;;3.33;1.80;;;21.30;99.90;;;;;;5015633;28;20026;-81
2023/08/29 08:54:26;;;;;;;2.03;1.83;;;21.40;99.90;;;;;;5017184;28;20117;-84
2023/08/29 08:56:52;;;;;;;2.25;2.05;;;21.50;99.90;;;;;;5016144;28;20026;-82
2023/08/29 08:59:18;;;;;;;5.55;1.85;;;21.60;99.90;;;;;;5047989;22;20042;-76
2023/08/29 09:01:44;;;;;;;2.80;2.53;;;21.60;99.90;;;;;;5032940;28;20029;-77
2023/08/29 09:04:09;;;;;;;3.72;2.33;;;21.70;99.90;;;;;;5033743;28;20025;-78
2023/08/29 09:06:35;;;;;;;2.83;2.03;;;21.70;99.90;;;;;;5032102;28;20087;-76
2023/08/29 09:09:23;;;;;;;2.58;2.38;;;21.80;99.90;;;;;;5033381;28;20029;-77
2023/08/29 09:11:58;;;;;;;4.20;2.20;;;21.90;99.90;;;;;;5034354;28;20024;-78
2023/08/29 09:14:25;;;;;;;5.88;2.03;;;21.50;99.90;;;;;;5032625;28;20017;-78
2023/08/29 09:16:55;;;;;;;4.22;2.33;;;21.20;99.90;;;;;;5034269;28;20042;-78
2023/08/29 09:19:22;;;;;;;2.63;2.42;;;21.00;99.90;;;;;;5032636;28;20091;-78
2023/08/29 09:21:48;;;;;;;5.28;1.95;;;21.10;99.90;;;;;;5033587;28;20032;-77
2023/08/29 09:24:14;;;;;;;5.32;2.72;;;21.20;99.90;;;;;;5033664;28;20017;-77
2023/08/29 09:26:41;;;;;;;2.35;2.10;;;21.40;99.90;;;;;;5033429;28;20092;-78
2023/08/29 09:29:20;;;;;;;4.63;2.45;;;21.30;99.90;;;;;;5033204;28;20029;-77
2023/08/29 09:31:49;;;;;;;2.88;2.13;;;21.40;99.90;;;;;;5031911;28;20029;-76
2023/08/29 09:34:30;;;;;;;3.35;2.35;;;21.60;99.90;;;;;;5031804;28;20072;-77
2023/08/29 09:37:02;;;;;;;2.35;2.13;;;21.50;99.90;;;;;;5032177;28;20131;-77
2023/08/29 09:39:28;;;;;;;3.83;2.13;;;21.40;99.90;;;;;;5032980;28;20024;-77
2023/08/29 09:42:12;;;;;;;3.83;2.17;;;21.30;99.90;;;;;;5032762;28;20165;-76
2023/08/29 09:44:39;;;;;;;2.85;2.47;;;21.10;99.90;;;;;;5032554;28;20055;-77
2023/08/29 09:47:06;;;;;;;2.00;1.83;;;20.90;99.90;;;;;;5032614;28;20025;-77
2023/08/29 09:49:43;;;;;;;2.13;1.77;;;20.90;99.90;;;;;;5032603;28;20021;-77
2023/08/29 09:52:10;;;;;;;3.35;2.30;;;20.70;99.90;;;;;;5033034;28;20029;-78
2023/08/29 09:54:37;;;;;;;2.95;2.70;;;20.70;99.90;;;;;;5046538;28;20029;-78
2023/08/29 09:57:05;;;;;;;5.50;2.22;;;20.70;99.90;;;;;;5051780;28;20059;-78
2023/08/29 09:59:34;;;;;;;4.20;2.03;;;20.70;99.90;;;;;;5052737;28;20057;-77
2023/08/29 10:02:01;;;;;;;2.50;1.95;;;20.50;99.90;;;;;;5053023;28;20033;-78
2023/08/29 10:04:29;;;;;;;3.83;1.98;;;20.50;99.90;;;;;;5051328;28;20026;-77
2023/08/29 10:06:59;;;;;;;3.50;2.10;;;20.50;99.90;;;;;;5036976;28;20026;-79
2023/08/29 10:09:25;;;;;;;2.10;1.90;;;20.60;99.90;;;;;;5034571;28;20025;-79
2023/08/29 10:11:52;;;;;;;2.33;1.98;;;20.60;99.90;;;;;;5033977;28;20112;-79
2023/08/29 10:14:18;;;;;;;3.17;2.28;;;20.50;99.90;;;;;;5034575;28;20108;-79
2023/08/29 10:16:46;;;;;;;5.68;2.38;;;20.50;99.90;;;;;;5033724;28;20026;-79
2023/08/29 10:19:14;;;;;;;1.55;1.45;;;20.50;99.90;;;;;;5033515;28;20030;-78
2023/08/29 10:21:42;;;;;;;2.17;1.73;;;20.40;99.90;;;;;;5036456;28;20014;-78
2023/08/29 10:24:10;;;;;;;3.95;1.63;;;20.50;99.90;;;;;;5033666;28;20476;-78
2023/08/29 10:26:37;;;;;;;2.08;1.63;;;20.40;99.90;;;;;;5030711;28;20032;-78
2023/08/29 10:29:05;;;;;;;2.53;1.92;;;20.40;99.90;;;;;;5034293;28;20518;-77
2023/08/29 10:31:34;;;;;;;3.33;1.70;;;20.50;99.90;;;;;;5034380;28;20032;-78
2023/08/29 10:34:03;;;;;;;2.58;1.85;;;20.80;99.90;;;;;;5031482;28;20115;-78
2023/08/29 10:36:29;;;;;;;1.42;1.33;;;20.70;99.90;;;;;;5030718;28;20026;-78
2023/08/29 10:38:58;;;;;;;4.35;1.83;;;20.60;99.90;;;;;;5030376;28;20503;-78
2023/08/29 10:41:23;;;;;;;2.17;1.90;;;20.50;99.90;;;;;;5032392;28;20018;-78
2023/08/29 10:43:53;;;;;;;1.63;1.52;;;20.40;99.90;;;;;;5033097;28;20028;-80
2023/08/29 10:46:20;;;;;;;3.20;1.95;;;20.30;99.90;;;;;;5033747;28;20075;-79
2023/08/29 10:48:46;;;;;;;2.30;1.75;;;20.10;99.90;;;;;;5034134;28;20021;-79
2023/08/29 10:51:18;;;;;;;2.22;2.03;;;19.90;99.90;;;;;;5034259;28;20032;-80
2023/08/29 10:53:52;;;;;;;4.05;1.95;;;19.90;99.90;;;;;;5033511;28;20115;-81
2023/08/29 10:56:24;;;;;;;2.30;1.95;;;19.80;99.90;;;;;;5034667;28;20029;-80
2023/08/29 10:58:50;;;;;;;3.50;1.88;;;19.70;99.90;;;;;;5034661;28;20506;-80
2023/08/29 11:01:26;;;;;;;3.50;2.28;;;19.60;99.90;;;;;;5033379;28;20081;-80
2023/08/29 11:03:53;;;;;;;2.40;1.90;;;19.60;99.90;;;;;;5034635;28;20109;-80
2023/08/29 11:06:23;;;;;;;3.15;1.75;;;19.70;99.90;;;;;;5033411;28;20057;-80
2023/08/29 11:08:49;;;;;;;2.72;1.90;;;19.70;99.90;;;;;;5032797;28;20048;-80
2023/08/29 11:11:16;;;;;;;3.17;2.38;;;19.60;99.90;;;;;;5032580;28;20143;-78
2023/08/29 11:14:02;;;;;;;2.40;2.08;;;19.80;99.90;;;;;;5032410;28;20033;-81
2023/08/29 11:16:30;;;;;;;1.90;1.70;;;20.00;99.90;;;;;;5032108;28;20144;-80
2023/08/29 11:19:09;;;;;;;2.00;1.67;;;20.20;99.90;;;;;;5031672;28;20025;-79
2023/08/29 11:21:35;;;;;;;1.73;1.52;;;20.30;99.90;;;;;;5032776;28;20022;-78
2023/08/29 11:24:03;;;;;;;1.48;1.25;;;20.30;99.90;;;;;;5031827;28;20510;-82
2023/08/29 11:26:29;;;;;;;2.25;1.20;;;20.30;99.90;;;;;;5031704;28;20029;-81
2023/08/29 11:28:55;;;;;;;1.85;1.67;;;20.50;99.90;;;;;;5031158;28;20041;-82
2023/08/29 11:31:21;;;;;;;1.67;1.55;;;20.30;99.90;;;;;;5032674;28;20021;-79
2023/08/29 11:33:47;;;;;;;1.45;1.27;;;20.40;99.90;;;;;;5031488;28;20040;-81
2023/08/29 11:36:13;;;;;;;2.25;1.17;;;20.50;99.90;;;;;;5030941;28;20087;-80
2023/08/29 11:38:38;;;;;;;3.17;1.23;;;20.50;99.90;;;;;;5032752;28;20029;-82
2023/08/29 11:41:05;;;;;;;2.75;1.20;;;20.50;99.90;;;;;;5033724;28;20021;-83
2023/08/29 11:43:32;;;;;;;1.52;1.25;;;20.50;99.90;;;;;;5035991;28;20021;-82
2023/08/29 11:45:59;;;;;;;1.50;1.10;;;20.50;99.90;;;;;;5034655;28;20026;-82
2023/08/29 11:48:26;;;;;;;2.15;1.20;;;20.60;99.90;;;;;;5035834;28;20033;-82
2023/08/29 11:50:56;;;;;;;1.52;1.10;;;20.80;99.90;;;;;;5036089;28;20029;-82
2023/08/29 11:53:34;;;;;;;1.25;1.15;;;20.90;99.90;;;;;;5034575;28;20086;-81
2023/08/29 11:56:02;;;;;;;2.03;1.27;;;21.00;99.90;;;;;;5035940;28;20168;-81
2023/08/29 11:58:33;;;;;;;4.20;1.15;;;21.20;99.90;;;;;;5035048;28;20491;-83
2023/08/29 12:01:07;;;;;;;2.92;1.13;;;21.00;99.90;;;;;;5034397;28;20025;-82
2023/08/29 12:03:38;;;;;;;2.75;1.30;;;21.10;99.90;;;;;;5033839;28;20029;-78
2023/08/29 12:06:09;;;;;;;1.95;0.82;;;21.20;99.90;;;;;;5033706;28;20538;-78
2023/08/29 12:08:38;;;;;;;2.00;1.08;;;21.20;99.90;;;;;;5035330;28;20049;-78
2023/08/29 12:11:06;;;;;;;1.63;1.30;;;21.20;99.90;;;;;;5036289;28;20022;-77
2023/08/29 12:13:33;;;;;;;3.70;0.90;;;20.90;99.90;;;;;;5035219;28;20025;-78
2023/08/29 12:15:59;;;;;;;1.15;0.95;;;20.90;99.90;;;;;;5035022;28;20506;-78
2023/08/29 12:18:25;;;;;;;1.35;0.90;;;20.90;99.90;;;;;;5034497;28;20102;-78
2023/08/29 12:20:52;;;;;;;1.10;1.00;;;20.70;99.90;;;;;;5035155;28;20025;-79
2023/08/29 12:23:26;;;;;;;0.50;0.50;;;20.90;99.90;;;;;;5034719;28;20024;-78
2023/08/29 12:25:53;;;;;;;0.77;0.63;;;21.10;99.90;;;;;;5034762;28;20037;-78
2023/08/29 12:28:19;;;;;;;0.70;0.68;;;21.30;99.90;;;;;;5034202;28;20075;-78
2023/08/29 12:30:45;;;;;;;6.07;0.80;;;21.40;99.90;;;;;;5034935;28;20025;-79
2023/08/29 12:33:10;;;;;;;0.63;0.52;;;21.50;99.90;;;;;;5036127;28;20040;-78
2023/08/29 12:35:38;;;;;;;1.55;0.55;;;21.30;99.90;;;;;;5035239;28;20105;-77
2023/08/29 12:38:03;;;;;;;1.70;1.13;;;21.30;99.90;;;;;;5033888;28;20021;-78
2023/08/29 12:40:30;;;;;;;0.63;0.57;;;21.50;99.90;;;;;;5035472;28;20071;-79
2023/08/29 12:42:56;;;;;;;0.50;0.50;;;21.70;99.90;;;;;;5035717;28;20021;-78
2023/08/29 12:45:21;;;;;;;1.50;0.60;;;21.80;99.90;;;;;;5035204;28;20025;-79